Le Roy, Illinois
Current Conditions -  °F | °C
As of 8:56 AM on Thursday 30 Oct 2014 (Local Time) from KBMI Reporting Station
Clear Clear  
Wind Chill: 34°   Ceiling: Unl
Heat Index: 39°   Visibility: 10mi
Dew Point: 36°   Wind: 7mph
Humidity: 89%   Direction: 180°S
Pressure: 30.15"   Gusts: NA
Location:  40.35°N, 88.76°W
Report Text: KBMI 301356Z 18006KT 10SM CLR 04/02 A3015 RMK AO2 T00380022 SLP222
Loading
Personal Weather Stations






























Interactive Weather Map New forecast layout! Learn more

10-Day Weather Forecast

Advertisements
Track Severe Weather on mobile